Time;durP1;ratioP1;P1;durP2;ratioP2;P2;SDS_P1;SDS_P2;PMS_P1;PMS_P2;Temp;Humidity;BMP_temperature;BMP_pressure;BME280_temperature;BME280_humidity;BME280_pressure;Samples;Min_cycle;Max_cycle;Signal;HPM_P1;HPM_P2
2022/03/22 00:01:47;;;;;;;;;;;18.40;49.60;;;;;;5024851;28;19913;-55
2022/03/22 00:04:13;;;;;;;;;;;18.40;49.50;;;;;;5025301;28;19919;-56
2022/03/22 00:06:38;;;;;;;;;;;18.40;49.60;;;;;;5024591;28;20289;-54
2022/03/22 00:09:04;;;;;;;;;;;18.40;49.60;;;;;;5023928;28;19913;-56
2022/03/22 00:11:29;;;;;;;;;;;18.30;49.80;;;;;;5024053;28;20302;-55
2022/03/22 00:13:55;;;;;;;;;;;18.40;49.80;;;;;;5006959;28;19921;-55
2022/03/22 00:16:20;;;;;;;;;;;18.40;49.70;;;;;;5019089;28;20324;-57
2022/03/22 00:18:47;;;;;;;;;;;18.30;49.80;;;;;;5001373;28;19928;-52
2022/03/22 00:21:12;;;;;;;;;;;18.30;49.90;;;;;;5022044;28;19920;-55
2022/03/22 00:23:37;;;;;;;;;;;18.30;49.90;;;;;;5019266;28;19921;-52
2022/03/22 00:26:03;;;;;;;;;;;18.30;49.90;;;;;;5021448;28;19967;-56
2022/03/22 00:28:30;;;;;;;;;;;18.20;49.90;;;;;;5019984;28;19924;-53
2022/03/22 00:30:56;;;;;;;;;;;18.20;49.90;;;;;;5006064;28;20356;-54
2022/03/22 00:33:21;;;;;;;;;;;18.20;50.00;;;;;;5021727;28;19921;-54
2022/03/22 00:35:49;;;;;;;;;;;18.20;50.00;;;;;;5023723;28;19913;-53
2022/03/22 00:38:16;;;;;;;;;;;18.20;50.00;;;;;;5021637;28;19913;-56
2022/03/22 00:40:42;;;;;;;;;;;18.20;49.90;;;;;;5023848;28;20512;-55
2022/03/22 00:43:07;;;;;;;;;;;18.20;50.00;;;;;;5023207;28;19920;-57
2022/03/22 00:45:33;;;;;;;;;;;18.20;50.60;;;;;;5023877;28;20362;-54
2022/03/22 00:47:58;;;;;;;;;;;18.20;50.00;;;;;;5011865;28;19913;-56
2022/03/22 00:50:27;;;;;;;;;;;18.10;50.00;;;;;;5022664;28;19918;-55
2022/03/22 00:52:52;;;;;;;;;;;18.20;50.00;;;;;;5003982;28;19925;-56
2022/03/22 00:55:21;;;;;;;;;;;18.10;50.10;;;;;;5023829;28;19975;-55
2022/03/22 00:57:47;;;;;;;;;;;18.10;50.00;;;;;;5021683;28;19921;-55
2022/03/22 01:00:12;;;;;;;;;;;18.10;50.00;;;;;;5005720;28;19917;-52
2022/03/22 01:02:39;;;;;;;;;;;18.10;50.10;;;;;;5022660;28;19913;-56
2022/03/22 01:05:06;;;;;;;;;;;18.20;49.90;;;;;;5023717;28;19913;-55
2022/03/22 01:07:33;;;;;;;;;;;18.30;49.70;;;;;;5022853;28;19917;-56
2022/03/22 01:09:59;;;;;;;;;;;18.10;49.70;;;;;;5006363;28;19913;-56
2022/03/22 01:12:25;;;;;;;;;;;18.20;49.80;;;;;;5021100;28;19971;-56
2022/03/22 01:14:50;;;;;;;;;;;18.10;49.80;;;;;;5023632;28;19940;-55
2022/03/22 01:17:16;;;;;;;;;;;18.10;49.80;;;;;;5022310;28;19913;-53
2022/03/22 01:19:41;;;;;;;;;;;18.10;49.80;;;;;;5017417;22;20422;-63
2022/03/22 01:22:07;;;;;;;;;;;18.10;49.70;;;;;;4986730;28;19914;-62
2022/03/22 01:24:32;;;;;;;;;;;18.10;49.70;;;;;;4988107;28;19921;-60
2022/03/22 01:26:57;;;;;;;;;;;18.00;49.80;;;;;;4988314;28;20013;-63
2022/03/22 01:29:23;;;;;;;;;;;18.00;49.70;;;;;;5004959;28;20418;-62
2022/03/22 01:31:49;;;;;;;;;;;18.00;49.80;;;;;;5007837;28;20639;-60
2022/03/22 01:34:15;;;;;;;;;;;18.00;49.60;;;;;;4993383;28;20040;-61
2022/03/22 01:36:40;;;;;;;;;;;18.00;49.70;;;;;;4988237;28;19914;-62
2022/03/22 01:39:05;;;;;;;;;;;18.00;49.60;;;;;;5002841;28;19924;-62
2022/03/22 01:41:31;;;;;;;;;;;17.90;49.70;;;;;;5008586;28;19917;-60
2022/03/22 01:43:56;;;;;;;;;;;17.90;49.60;;;;;;4997456;28;20601;-61
2022/03/22 01:46:25;;;;;;;;;;;17.90;49.60;;;;;;4987516;28;20471;-63
2022/03/22 01:48:51;;;;;;;;;;;17.90;49.60;;;;;;4996769;28;20474;-61
2022/03/22 01:51:17;;;;;;;;;;;17.90;49.60;;;;;;5007482;28;19913;-63
2022/03/22 01:53:43;;;;;;;;;;;18.00;49.60;;;;;;4999600;28;20422;-59
2022/03/22 01:56:08;;;;;;;;;;;18.00;49.50;;;;;;4986726;28;19986;-63
2022/03/22 01:58:34;;;;;;;;;;;18.00;49.40;;;;;;4991176;28;20437;-63
2022/03/22 02:06:28;;;;;;;;;;;17.90;49.40;;;;;;4987108;28;20072;-63
2022/03/22 02:08:54;;;;;;;;;;;17.80;49.60;;;;;;4993027;28;19914;-63
2022/03/22 02:11:19;;;;;;;;;;;17.80;49.40;;;;;;5006186;28;19940;-61
2022/03/22 02:13:45;;;;;;;;;;;17.70;49.50;;;;;;5002224;28;19922;-61
2022/03/22 02:16:10;;;;;;;;;;;17.80;49.50;;;;;;4987595;28;20303;-61
2022/03/22 02:18:35;;;;;;;;;;;17.80;49.40;;;;;;4990150;28;19913;-61
2022/03/22 02:21:01;;;;;;;;;;;17.80;49.20;;;;;;5007337;28;19917;-60
2022/03/22 02:23:32;;;;;;;;;;;17.70;49.20;;;;;;5005784;28;19921;-63
2022/03/22 02:25:58;;;;;;;;;;;17.70;49.20;;;;;;4987665;28;20060;-61
2022/03/22 02:28:23;;;;;;;;;;;17.60;49.30;;;;;;4987723;28;19921;-61
2022/03/22 02:30:50;;;;;;;;;;;17.70;49.30;;;;;;5006743;28;19917;-61
2022/03/22 02:33:15;;;;;;;;;;;17.70;49.20;;;;;;5006449;28;19918;-60
2022/03/22 02:35:41;;;;;;;;;;;17.80;49.10;;;;;;4988440;28;19914;-62
2022/03/22 02:38:07;;;;;;;;;;;17.70;48.90;;;;;;4987255;28;19968;-62
2022/03/22 02:40:33;;;;;;;;;;;17.70;49.10;;;;;;5003935;28;19917;-64
2022/03/22 02:42:59;;;;;;;;;;;17.70;49.00;;;;;;5007772;28;19971;-61
2022/03/22 02:45:25;;;;;;;;;;;17.70;49.10;;;;;;4990936;28;19925;-62
2022/03/22 02:47:50;;;;;;;;;;;17.70;49.60;;;;;;4987406;28;19914;-63
2022/03/22 02:50:16;;;;;;;;;;;17.70;49.10;;;;;;4993244;28;19914;-63
2022/03/22 02:52:41;;;;;;;;;;;17.70;49.00;;;;;;4985389;28;20017;-62
2022/03/22 02:55:09;;;;;;;;;;;17.60;49.00;;;;;;4997565;28;19924;-61
2022/03/22 02:57:35;;;;;;;;;;;17.50;49.10;;;;;;5006477;28;19920;-61
2022/03/22 03:00:02;;;;;;;;;;;17.60;49.10;;;;;;4996207;28;19917;-62
2022/03/22 03:02:28;;;;;;;;;;;17.60;49.20;;;;;;4985302;28;20268;-63
2022/03/22 03:04:53;;;;;;;;;;;17.50;49.20;;;;;;4994197;28;19918;-62
2022/03/22 03:07:19;;;;;;;;;;;17.60;49.00;;;;;;5006541;28;19917;-60
2022/03/22 03:09:44;;;;;;;;;;;17.70;49.00;;;;;;5000180;28;20315;-63
2022/03/22 03:12:10;;;;;;;;;;;17.50;48.90;;;;;;4985730;28;19914;-62
2022/03/22 03:14:38;;;;;;;;;;;17.60;48.90;;;;;;4990671;28;19967;-62
2022/03/22 03:17:05;;;;;;;;;;;17.60;49.00;;;;;;5006227;28;20032;-63
2022/03/22 03:19:30;;;;;;;;;;;17.50;49.00;;;;;;5001918;28;19934;-61
2022/03/22 03:21:55;;;;;;;;;;;17.50;48.90;;;;;;4986203;28;19914;-61
2022/03/22 03:24:21;;;;;;;;;;;17.50;48.80;;;;;;4986749;28;19920;-63
2022/03/22 03:26:46;;;;;;;;;;;17.60;48.90;;;;;;5006268;28;20337;-63
2022/03/22 03:29:12;;;;;;;;;;;17.60;48.80;;;;;;5005642;28;19940;-62
2022/03/22 03:31:37;;;;;;;;;;;17.60;48.60;;;;;;4987597;28;19914;-63
2022/03/22 03:34:04;;;;;;;;;;;17.50;48.90;;;;;;4983207;28;19973;-63
2022/03/22 03:36:29;;;;;;;;;;;17.60;49.30;;;;;;4988974;28;20370;-60
2022/03/22 03:38:55;;;;;;;;;;;17.70;49.00;;;;;;4986169;28;19914;-63
2022/03/22 03:47:03;;;;;;;;;;;17.80;48.50;;;;;;4985613;28;19973;-62
2022/03/22 03:47:09;;;;;;;;;;;17.90;48.50;;;;;;5003688;28;20370;-62
2022/03/22 03:49:40;;;;;;;;;;;18.00;48.30;;;;;;5004595;28;20402;-61
2022/03/22 03:52:06;;;;;;;;;;;18.10;48.10;;;;;;4986216;28;19986;-63
2022/03/22 03:54:32;;;;;;;;;;;18.10;47.90;;;;;;4986734;28;19918;-63
2022/03/22 03:56:57;;;;;;;;;;;18.20;47.80;;;;;;5004042;28;20359;-63
2022/03/22 03:59:23;;;;;;;;;;;18.30;47.60;;;;;;5004933;28;19921;-61
2022/03/22 04:01:49;;;;;;;;;;;18.30;47.50;;;;;;4989908;28;20326;-60
2022/03/22 04:04:14;;;;;;;;;;;18.40;47.30;;;;;;4986230;28;19972;-58
2022/03/22 04:06:40;;;;;;;;;;;18.50;47.20;;;;;;4985006;28;20222;-62
2022/03/22 04:09:05;;;;;;;;;;;18.50;47.10;;;;;;4984696;28;19918;-60
2022/03/22 04:11:31;;;;;;;;;;;18.60;47.00;;;;;;4985881;28;20388;-60
2022/03/22 04:13:56;;;;;;;;;;;18.60;46.80;;;;;;4985786;28;19932;-62
2022/03/22 04:16:22;;;;;;;;;;;18.60;46.80;;;;;;4994474;28;19936;-61
2022/03/22 04:18:48;;;;;;;;;;;18.60;46.70;;;;;;5004870;28;19940;-59
2022/03/22 04:21:14;;;;;;;;;;;18.60;46.60;;;;;;4996998;28;20272;-60
2022/03/22 04:23:39;;;;;;;;;;;18.60;46.60;;;;;;4985279;28;19941;-63
2022/03/22 04:26:05;;;;;;;;;;;18.60;46.60;;;;;;4991348;28;20305;-60
2022/03/22 04:33:58;;;;;;;;;;;18.60;46.70;;;;;;4984564;28;19996;-57
2022/03/22 04:36:24;;;;;;;;;;;18.50;46.80;;;;;;4992538;28;19925;-59
2022/03/22 04:38:49;;;;;;;;;;;18.50;46.80;;;;;;5003786;28;19924;-55
2022/03/22 04:41:15;;;;;;;;;;;18.50;46.90;;;;;;4998835;28;19941;-60
2022/03/22 04:43:40;;;;;;;;;;;18.40;46.90;;;;;;4984435;28;19964;-56
2022/03/22 04:46:07;;;;;;;;;;;18.40;47.00;;;;;;4988886;28;19913;-57
2022/03/22 04:48:33;;;;;;;;;;;18.40;47.00;;;;;;5004136;28;19914;-62
2022/03/22 04:56:46;;;;;;;;;;;18.30;47.20;;;;;;4990407;28;19948;-57
2022/03/22 04:59:16;;;;;;;;;;;18.20;47.20;;;;;;5003626;28;20386;-60
2022/03/22 05:01:42;;;;;;;;;;;18.20;47.20;;;;;;4997229;28;20022;-56
2022/03/22 05:04:08;;;;;;;;;;;18.20;47.20;;;;;;4974782;28;19922;-60
2022/03/22 05:06:36;;;;;;;;;;;18.10;47.20;;;;;;4989877;28;19936;-57
2022/03/22 05:09:03;;;;;;;;;;;18.10;47.40;;;;;;4997187;28;19918;-59
2022/03/22 05:11:28;;;;;;;;;;;18.10;47.40;;;;;;4984316;28;19914;-61
2022/03/22 05:13:54;;;;;;;;;;;18.00;47.40;;;;;;4984495;28;19926;-56
2022/03/22 05:16:19;;;;;;;;;;;18.10;47.60;;;;;;4986692;28;19917;-58
2022/03/22 05:18:45;;;;;;;;;;;18.10;47.50;;;;;;5003230;28;19917;-60
2022/03/22 05:21:10;;;;;;;;;;;18.10;47.60;;;;;;5004203;28;19925;-59
2022/03/22 05:23:36;;;;;;;;;;;18.10;47.60;;;;;;4998913;28;19921;-56
2022/03/22 05:26:01;;;;;;;;;;;18.10;47.60;;;;;;4983665;28;20002;-58
2022/03/22 05:28:27;;;;;;;;;;;18.10;47.60;;;;;;5001517;28;20064;-62
2022/03/22 05:30:52;;;;;;;;;;;18.00;47.60;;;;;;5004409;28;19913;-53
2022/03/22 05:33:18;;;;;;;;;;;17.90;48.10;;;;;;4988577;28;20303;-60
2022/03/22 05:35:43;;;;;;;;;;;17.80;48.10;;;;;;4984899;28;19968;-62
2022/03/22 05:38:09;;;;;;;;;;;17.90;48.50;;;;;;4984673;28;19913;-55
2022/03/22 05:40:34;;;;;;;;;;;18.00;48.50;;;;;;4984621;28;20371;-55
2022/03/22 05:42:59;;;;;;;;;;;18.00;48.30;;;;;;4996077;28;19919;-62
2022/03/22 05:45:26;;;;;;;;;;;18.00;48.30;;;;;;5004344;28;19929;-56
2022/03/22 05:47:52;;;;;;;;;;;18.00;48.30;;;;;;4993460;28;20056;-58
2022/03/22 05:50:17;;;;;;;;;;;18.00;48.10;;;;;;4983932;28;20000;-57
2022/03/22 05:52:47;;;;;;;;;;;18.10;48.00;;;;;;4992609;28;19919;-56
2022/03/22 05:55:12;;;;;;;;;;;18.00;48.00;;;;;;5003721;28;19917;-58
2022/03/22 05:57:38;;;;;;;;;;;18.10;48.00;;;;;;5004049;28;19918;-61
2022/03/22 06:00:05;;;;;;;;;;;18.10;48.00;;;;;;5004210;28;19924;-55
2022/03/22 06:02:30;;;;;;;;;;;18.10;48.00;;;;;;4998786;28;19965;-60
2022/03/22 06:04:55;;;;;;;;;;;18.00;48.10;;;;;;4984339;28;19996;-59
2022/03/22 06:07:21;;;;;;;;;;;18.10;48.20;;;;;;4988977;28;19913;-58
2022/03/22 06:09:47;;;;;;;;;;;18.20;48.00;;;;;;5007351;28;19913;-59
2022/03/22 06:12:14;;;;;;;;;;;18.20;48.00;;;;;;5006347;28;19926;-60
2022/03/22 06:14:40;;;;;;;;;;;18.20;47.80;;;;;;4987896;28;20383;-56
2022/03/22 06:17:06;;;;;;;;;;;18.40;47.70;;;;;;4987846;28;19982;-58
2022/03/22 06:19:32;;;;;;;;;;;18.40;47.60;;;;;;5006855;28;20383;-61
2022/03/22 06:21:57;;;;;;;;;;;18.40;47.50;;;;;;5005628;28;20401;-60
2022/03/22 06:24:22;;;;;;;;;;;18.40;47.60;;;;;;4984115;28;20012;-62
2022/03/22 06:26:48;;;;;;;;;;;18.40;47.50;;;;;;4985219;28;20362;-57
2022/03/22 06:29:14;;;;;;;;;;;18.50;48.70;;;;;;4982628;28;19925;-61
2022/03/22 06:31:39;;;;;;;;;;;18.50;48.70;;;;;;4986012;28;19957;-61
2022/03/22 06:34:05;;;;;;;;;;;18.50;48.40;;;;;;5000453;28;19960;-57
2022/03/22 06:36:30;;;;;;;;;;;18.50;48.20;;;;;;5005932;28;19913;-58
2022/03/22 06:38:56;;;;;;;;;;;18.50;48.10;;;;;;4994391;28;19914;-59
2022/03/22 06:41:21;;;;;;;;;;;18.40;48.20;;;;;;4986427;28;19914;-62
2022/03/22 06:43:46;;;;;;;;;;;18.40;48.00;;;;;;4996796;28;19921;-61
2022/03/22 06:46:12;;;;;;;;;;;18.40;48.00;;;;;;5006035;28;19920;-59
2022/03/22 06:48:37;;;;;;;;;;;18.40;47.80;;;;;;4998062;28;19914;-62
2022/03/22 06:51:03;;;;;;;;;;;18.30;47.70;;;;;;4985764;28;19967;-61
2022/03/22 06:53:28;;;;;;;;;;;18.30;47.50;;;;;;4992900;28;19932;-57
2022/03/22 06:55:54;;;;;;;;;;;18.30;47.30;;;;;;5006141;28;19913;-58
2022/03/22 06:58:22;;;;;;;;;;;18.30;47.20;;;;;;5002075;28;20389;-61
2022/03/22 07:00:48;;;;;;;;;;;18.30;47.00;;;;;;4987450;28;20298;-61
2022/03/22 07:03:13;;;;;;;;;;;18.30;46.80;;;;;;4987020;28;19928;-60
2022/03/22 07:05:39;;;;;;;;;;;18.30;46.80;;;;;;4985715;28;19968;-57
2022/03/22 07:08:04;;;;;;;;;;;18.30;46.80;;;;;;4988674;28;19914;-60
2022/03/22 07:10:33;;;;;;;;;;;18.30;47.00;;;;;;5004789;28;20362;-54
2022/03/22 07:12:59;;;;;;;;;;;18.30;47.00;;;;;;5007310;28;19964;-58
2022/03/22 07:15:29;;;;;;;;;;;18.30;47.20;;;;;;4986028;28;19981;-55
2022/03/22 07:17:55;;;;;;;;;;;18.30;47.40;;;;;;4986231;28;19949;-58
2022/03/22 07:20:20;;;;;;;;;;;18.30;47.80;;;;;;5026068;22;20341;-61
2022/03/22 07:22:46;;;;;;;;;;;18.30;47.80;;;;;;5024035;28;19939;-58
2022/03/22 07:25:12;;;;;;;;;;;18.20;47.80;;;;;;5024357;28;20397;-61
2022/03/22 07:27:37;;;;;;;;;;;18.20;47.80;;;;;;4990341;28;19921;-59
2022/03/22 07:30:04;;;;;;;;;;;18.30;48.10;;;;;;5007203;28;19948;-60
2022/03/22 07:32:29;;;;;;;;;;;18.30;47.90;;;;;;5006937;28;19967;-62
2022/03/22 07:34:55;;;;;;;;;;;18.30;47.80;;;;;;5010184;28;19919;-62
2022/03/22 07:37:20;;;;;;;;;;;18.30;48.50;;;;;;5023985;28;19917;-58
2022/03/22 07:39:46;;;;;;;;;;;18.30;47.90;;;;;;5022396;28;20366;-62
2022/03/22 07:42:11;;;;;;;;;;;18.30;47.70;;;;;;5006318;28;19920;-62
2022/03/22 07:44:38;;;;;;;;;;;18.30;47.70;;;;;;5008706;28;19957;-57
2022/03/22 07:47:03;;;;;;;;;;;18.30;47.70;;;;;;5024459;28;19914;-62
2022/03/22 07:54:58;;;;;;;;;;;18.30;47.70;;;;;;5034153;28;19951;-59
2022/03/22 07:57:23;;;;;;;;;;;18.30;47.70;;;;;;5043922;28;19919;-61
2022/03/22 07:59:49;;;;;;;;;;;18.30;47.60;;;;;;5035335;28;19914;-61
2022/03/22 08:02:14;;;;;;;;;;;18.30;47.70;;;;;;5023655;28;19914;-63
2022/03/22 08:04:39;;;;;;;;;;;18.30;47.60;;;;;;5012418;28;19917;-64
2022/03/22 08:07:07;;;;;;;;;;;18.30;47.60;;;;;;5044002;28;19920;-62
2022/03/22 08:09:32;;;;;;;;;;;18.30;47.50;;;;;;5038361;28;19936;-60
2022/03/22 08:11:58;;;;;;;;;;;18.30;47.50;;;;;;5023493;28;20374;-64
2022/03/22 08:14:23;;;;;;;;;;;18.30;47.40;;;;;;5026104;28;19951;-64
2022/03/22 08:16:49;;;;;;;;;;;18.30;47.40;;;;;;5043343;28;19920;-58
2022/03/22 08:19:18;;;;;;;;;;;18.30;47.30;;;;;;5042094;28;19913;-64
2022/03/22 08:21:44;;;;;;;;;;;18.40;47.40;;;;;;5022784;28;19925;-65
2022/03/22 08:24:09;;;;;;;;;;;18.30;47.20;;;;;;5023796;28;19913;-60
2022/03/22 08:26:36;;;;;;;;;;;18.40;47.30;;;;;;5024975;28;19917;-58
2022/03/22 08:29:02;;;;;;;;;;;18.40;47.20;;;;;;5043086;28;19913;-59
2022/03/22 08:31:28;;;;;;;;;;;18.40;47.20;;;;;;5024655;28;19913;-61
2022/03/22 08:33:56;;;;;;;;;;;18.40;47.20;;;;;;5023428;28;19917;-62
2022/03/22 08:36:21;;;;;;;;;;;18.40;47.10;;;;;;5039007;28;19953;-60
2022/03/22 08:38:48;;;;;;;;;;;18.40;47.10;;;;;;5024810;28;19955;-61
2022/03/22 08:41:14;;;;;;;;;;;18.40;47.10;;;;;;5011118;28;19917;-59
2022/03/22 08:43:40;;;;;;;;;;;18.40;47.10;;;;;;5005485;28;19963;-61
2022/03/22 08:46:05;;;;;;;;;;;18.40;47.10;;;;;;5023065;28;19913;-63
2022/03/22 08:48:31;;;;;;;;;;;18.40;47.10;;;;;;5004758;28;19947;-58
2022/03/22 08:50:58;;;;;;;;;;;18.40;47.10;;;;;;5010297;28;19928;-58
2022/03/22 08:53:23;;;;;;;;;;;18.40;47.20;;;;;;5023227;28;19921;-64
2022/03/22 08:55:49;;;;;;;;;;;18.40;47.10;;;;;;5025177;28;20004;-59
2022/03/22 08:58:15;;;;;;;;;;;18.40;47.10;;;;;;5024910;28;19958;-57
2022/03/22 09:00:40;;;;;;;;;;;18.50;47.10;;;;;;5017124;28;20287;-62
2022/03/22 09:03:06;;;;;;;;;;;18.50;47.20;;;;;;5023096;28;19935;-64
2022/03/22 09:08:15;;;;;;;;;;;18.50;47.10;;;;;;5027520;28;19947;-60
2022/03/22 09:10:41;;;;;;;;;;;18.50;47.10;;;;;;5018219;28;20493;-57
2022/03/22 09:13:07;;;;;;;;;;;18.50;47.10;;;;;;5023085;28;19917;-62
2022/03/22 09:15:35;;;;;;;;;;;18.50;47.10;;;;;;5008819;28;19920;-62
2022/03/22 09:18:01;;;;;;;;;;;18.60;47.10;;;;;;5041969;28;20441;-59
2022/03/22 09:20:31;;;;;;;;;;;18.60;47.10;;;;;;5021304;28;19928;-62
2022/03/22 09:22:56;;;;;;;;;;;18.60;47.20;;;;;;5022664;28;19921;-62
2022/03/22 09:25:22;;;;;;;;;;;18.60;47.10;;;;;;5023425;28;19948;-60
2022/03/22 09:27:47;;;;;;;;;;;18.60;47.10;;;;;;5042169;28;19959;-58
2022/03/22 09:30:13;;;;;;;;;;;18.60;46.90;;;;;;5042542;28;19913;-60
2022/03/22 09:32:39;;;;;;;;;;;18.60;47.00;;;;;;5022791;28;19913;-64
2022/03/22 09:35:10;;;;;;;;;;;18.60;47.10;;;;;;5005285;28;19963;-64
2022/03/22 09:37:36;;;;;;;;;;;18.60;47.10;;;;;;5023826;28;19913;-61
2022/03/22 09:40:01;;;;;;;;;;;18.70;47.10;;;;;;5024002;28;20046;-57
2022/03/22 09:42:27;;;;;;;;;;;18.70;47.10;;;;;;5009729;28;19921;-64
2022/03/22 09:44:53;;;;;;;;;;;18.70;47.10;;;;;;5025915;28;19929;-60
2022/03/22 09:47:18;;;;;;;;;;;18.70;47.00;;;;;;5022860;28;19913;-61
2022/03/22 09:49:44;;;;;;;;;;;18.70;47.00;;;;;;5027723;28;19913;-59
2022/03/22 09:52:09;;;;;;;;;;;18.70;47.00;;;;;;5015313;28;20398;-61
2022/03/22 09:54:35;;;;;;;;;;;18.70;47.10;;;;;;5008728;28;19939;-61
2022/03/22 09:57:04;;;;;;;;;;;18.70;47.10;;;;;;5018366;28;20447;-60
2022/03/22 09:59:30;;;;;;;;;;;18.70;47.10;;;;;;5028070;28;20066;-59
2022/03/22 10:01:59;;;;;;;;;;;18.80;47.10;;;;;;5018525;28;19996;-59
2022/03/22 10:04:36;;;;;;;;;;;18.80;47.10;;;;;;5026089;28;20437;-61
2022/03/22 10:07:03;;;;;;;;;;;18.80;47.00;;;;;;5018667;28;19920;-63
2022/03/22 10:09:32;;;;;;;;;;;18.80;47.00;;;;;;5027611;28;20504;-62
2022/03/22 10:11:58;;;;;;;;;;;18.80;47.00;;;;;;5019555;28;20540;-63
2022/03/22 10:14:36;;;;;;;;;;;18.80;47.00;;;;;;5008328;28;19927;-62
2022/03/22 10:17:08;;;;;;;;;;;18.80;47.00;;;;;;5016204;28;19913;-63
2022/03/22 10:19:39;;;;;;;;;;;18.80;47.00;;;;;;5018215;28;20016;-63
2022/03/22 10:22:05;;;;;;;;;;;18.80;47.10;;;;;;5020476;28;19967;-62
2022/03/22 10:24:40;;;;;;;;;;;18.80;47.00;;;;;;5025977;28;19913;-62
2022/03/22 10:27:06;;;;;;;;;;;18.80;47.00;;;;;;5014757;28;20734;-59
2022/03/22 10:29:32;;;;;;;;;;;18.80;47.00;;;;;;5045710;28;19920;-64
2022/03/22 10:32:02;;;;;;;;;;;18.70;47.00;;;;;;5040685;28;19913;-60
2022/03/22 10:34:28;;;;;;;;;;;18.70;47.10;;;;;;5026305;28;19925;-61
2022/03/22 10:36:54;;;;;;;;;;;18.70;47.20;;;;;;5029905;28;19913;-61
2022/03/22 10:39:21;;;;;;;;;;;18.70;47.30;;;;;;5044066;28;20325;-62
2022/03/22 10:41:46;;;;;;;;;;;18.70;47.30;;;;;;5043010;28;20237;-63
2022/03/22 10:44:13;;;;;;;;;;;18.70;47.40;;;;;;5025722;28;19920;-63
2022/03/22 10:46:39;;;;;;;;;;;18.70;47.40;;;;;;5008642;28;19932;-64
2022/03/22 10:49:09;;;;;;;;;;;18.70;47.40;;;;;;5027854;28;19987;-62
2022/03/22 10:51:45;;;;;;;;;;;18.70;47.50;;;;;;5027235;28;20008;-63
2022/03/22 10:54:12;;;;;;;;;;;18.70;47.40;;;;;;4987864;28;19921;-61
2022/03/22 10:56:48;;;;;;;;;;;18.80;47.30;;;;;;5005059;28;19920;-61
2022/03/22 10:59:14;;;;;;;;;;;18.80;47.40;;;;;;5005260;28;20494;-60
2022/03/22 11:01:42;;;;;;;;;;;18.80;47.30;;;;;;5005264;28;19914;-64
2022/03/22 11:04:07;;;;;;;;;;;18.80;47.40;;;;;;5043206;28;19935;-62
2022/03/22 11:06:32;;;;;;;;;;;18.80;47.30;;;;;;5044436;28;19913;-61
2022/03/22 11:08:58;;;;;;;;;;;18.80;47.40;;;;;;5027235;28;19913;-59
2022/03/22 11:11:24;;;;;;;;;;;18.80;47.30;;;;;;5007148;28;19918;-64
2022/03/22 11:13:49;;;;;;;;;;;18.80;47.40;;;;;;5021769;28;19971;-61
2022/03/22 11:16:15;;;;;;;;;;;18.80;47.30;;;;;;5026771;28;20321;-62
2022/03/22 11:18:40;;;;;;;;;;;18.80;47.30;;;;;;5013076;28;19917;-60
2022/03/22 11:21:06;;;;;;;;;;;18.80;47.30;;;;;;5024534;28;19929;-63
2022/03/22 11:23:32;;;;;;;;;;;18.80;47.40;;;;;;5017784;28;20326;-60
2022/03/22 11:26:07;;;;;;;;;;;18.80;47.40;;;;;;5026372;28;19913;-61
2022/03/22 11:28:32;;;;;;;;;;;18.90;47.50;;;;;;5031817;28;19987;-62
2022/03/22 11:30:58;;;;;;;;;;;18.90;47.30;;;;;;5024192;28;20389;-60
2022/03/22 11:36:14;;;;;;;;;;;18.90;47.30;;;;;;5029318;28;19919;-61
2022/03/22 11:38:45;;;;;;;;;;;18.90;47.30;;;;;;5004826;28;19953;-62
2022/03/22 11:44:14;;;;;;;;;;;18.90;47.30;;;;;;5037907;28;19963;-64
2022/03/22 11:46:40;;;;;;;;;;;18.90;47.40;;;;;;5025877;28;20550;-60
2022/03/22 11:49:14;;;;;;;;;;;18.90;47.40;;;;;;5031086;28;19971;-59
2022/03/22 11:51:47;;;;;;;;;;;19.00;47.40;;;;;;5013305;28;19920;-60
2022/03/22 11:54:12;;;;;;;;;;;19.00;47.30;;;;;;4998649;28;19917;-61
2022/03/22 11:56:44;;;;;;;;;;;19.00;47.30;;;;;;5023491;28;19914;-64
2022/03/22 11:59:11;;;;;;;;;;;19.00;47.30;;;;;;5023924;28;19914;-58
2022/03/22 12:01:36;;;;;;;;;;;19.00;47.30;;;;;;5006127;28;19948;-60
2022/03/22 12:04:04;;;;;;;;;;;18.90;47.30;;;;;;5022975;28;20370;-61
2022/03/22 12:06:33;;;;;;;;;;;19.00;47.30;;;;;;4989700;28;19917;-62
2022/03/22 12:08:59;;;;;;;;;;;19.00;47.30;;;;;;5013632;28;20317;-58
2022/03/22 12:11:24;;;;;;;;;;;19.00;47.30;;;;;;5043624;28;19913;-60
2022/03/22 12:13:50;;;;;;;;;;;19.00;47.30;;;;;;5037915;28;19981;-64
2022/03/22 12:16:15;;;;;;;;;;;19.00;47.40;;;;;;5021067;28;20401;-61
2022/03/22 12:18:41;;;;;;;;;;;19.00;47.30;;;;;;5010861;28;19940;-62
2022/03/22 12:21:16;;;;;;;;;;;19.10;47.30;;;;;;5022310;28;19936;-61
2022/03/22 12:23:43;;;;;;;;;;;19.10;47.40;;;;;;5007908;28;19914;-64
2022/03/22 12:26:10;;;;;;;;;;;19.10;47.30;;;;;;5021324;28;20264;-62
2022/03/22 12:28:45;;;;;;;;;;;19.10;47.20;;;;;;5011586;28;19913;-63
2022/03/22 12:31:11;;;;;;;;;;;19.10;47.20;;;;;;5042582;28;19913;-65
2022/03/22 12:33:37;;;;;;;;;;;19.10;47.20;;;;;;5026960;28;19917;-64
2022/03/22 12:36:03;;;;;;;;;;;19.10;47.20;;;;;;5022385;28;19925;-62
2022/03/22 12:38:28;;;;;;;;;;;19.10;47.20;;;;;;5009811;28;22328;-63
2022/03/22 12:40:54;;;;;;;;;;;19.10;47.30;;;;;;5024025;28;19920;-59
2022/03/22 12:43:19;;;;;;;;;;;19.10;47.30;;;;;;5013885;28;19913;-62
2022/03/22 12:45:46;;;;;;;;;;;19.10;47.30;;;;;;5006376;28;20455;-63
2022/03/22 12:48:14;;;;;;;;;;;19.10;47.20;;;;;;4977812;28;19970;-64
2022/03/22 12:50:39;;;;;;;;;;;19.20;47.30;;;;;;5038415;28;19963;-62
2022/03/22 12:53:05;;;;;;;;;;;19.20;47.30;;;;;;5029656;28;20400;-62
2022/03/22 12:55:30;;;;;;;;;;;19.20;47.20;;;;;;5027458;28;19917;-61
2022/03/22 12:57:59;;;;;;;;;;;19.20;47.30;;;;;;5010740;28;20003;-64
2022/03/22 13:00:25;;;;;;;;;;;19.20;47.30;;;;;;5018380;28;19919;-60
2022/03/22 13:02:50;;;;;;;;;;;19.20;47.40;;;;;;5003907;28;19953;-64
2022/03/22 13:05:22;;;;;;;;;;;19.20;47.10;;;;;;5012578;28;19963;-62
2022/03/22 13:07:47;;;;;;;;;;;19.20;47.30;;;;;;5022373;28;19913;-60
2022/03/22 13:12:57;;;;;;;;;;;19.30;47.40;;;;;;5022067;28;19963;-63
2022/03/22 13:15:23;;;;;;;;;;;19.30;47.40;;;;;;5015647;28;20324;-64
2022/03/22 13:17:49;;;;;;;;;;;19.30;47.40;;;;;;5027639;28;20023;-60
2022/03/22 13:20:21;;;;;;;;;;;19.30;47.40;;;;;;5051957;22;19992;-64
2022/03/22 13:22:53;;;;;;;;;;;19.30;47.80;;;;;;5028954;28;19925;-64
2022/03/22 13:25:22;;;;;;;;;;;19.30;47.40;;;;;;5030031;28;20363;-65
2022/03/22 13:27:52;;;;;;;;;;;19.30;47.40;;;;;;5012035;28;19909;-65
2022/03/22 13:30:18;;;;;;;;;;;19.30;47.40;;;;;;5029206;28;19913;-65
2022/03/22 13:32:43;;;;;;;;;;;19.40;47.40;;;;;;5029461;28;19995;-64
2022/03/22 13:35:09;;;;;;;;;;;19.40;47.40;;;;;;5030047;28;20397;-65
2022/03/22 13:37:42;;;;;;;;;;;19.40;47.40;;;;;;5011957;28;19968;-64
2022/03/22 13:40:08;;;;;;;;;;;19.40;47.40;;;;;;5029379;28;19952;-65
2022/03/22 13:42:33;;;;;;;;;;;19.40;47.40;;;;;;5029231;28;19951;-64
2022/03/22 13:45:00;;;;;;;;;;;19.40;47.40;;;;;;5029950;28;20016;-65
2022/03/22 13:47:26;;;;;;;;;;;19.40;47.40;;;;;;5029584;28;19967;-65
2022/03/22 13:49:52;;;;;;;;;;;19.40;47.50;;;;;;5027946;28;19917;-64
2022/03/22 13:52:24;;;;;;;;;;;19.30;47.40;;;;;;5027662;28;20588;-65
2022/03/22 13:54:53;;;;;;;;;;;19.40;47.40;;;;;;5027552;28;20573;-64
2022/03/22 13:57:19;;;;;;;;;;;19.40;47.40;;;;;;5010089;28;19921;-65
2022/03/22 13:59:44;;;;;;;;;;;19.30;47.50;;;;;;5026769;28;19956;-64
2022/03/22 14:02:10;;;;;;;;;;;19.40;47.50;;;;;;5027624;28;19925;-64
2022/03/22 14:04:35;;;;;;;;;;;19.40;47.50;;;;;;5027393;28;19917;-64
2022/03/22 14:07:02;;;;;;;;;;;19.40;47.50;;;;;;5027026;28;19924;-65
2022/03/22 14:09:27;;;;;;;;;;;19.40;47.50;;;;;;5026942;28;19923;-64
2022/03/22 14:11:52;;;;;;;;;;;19.40;47.50;;;;;;5026854;28;20527;-63
2022/03/22 14:14:18;;;;;;;;;;;19.40;47.60;;;;;;5026697;28;19968;-64
2022/03/22 14:16:43;;;;;;;;;;;19.40;47.50;;;;;;5027056;28;19917;-65
2022/03/22 14:19:12;;;;;;;;;;;19.40;47.40;;;;;;5025646;28;19917;-64
2022/03/22 14:21:38;;;;;;;;;;;19.40;47.60;;;;;;5026764;28;20380;-64
2022/03/22 14:24:03;;;;;;;;;;;19.40;47.60;;;;;;5026856;28;19924;-65
2022/03/22 14:26:29;;;;;;;;;;;19.40;47.60;;;;;;5027160;28;19917;-64
2022/03/22 14:28:54;;;;;;;;;;;19.40;47.60;;;;;;5026197;28;19913;-65
2022/03/22 14:31:20;;;;;;;;;;;19.40;47.60;;;;;;5026880;28;19913;-65
2022/03/22 14:33:45;;;;;;;;;;;19.40;47.70;;;;;;5026494;28;20638;-64
2022/03/22 14:36:20;;;;;;;;;;;19.40;47.70;;;;;;5026676;28;19963;-64
2022/03/22 14:38:45;;;;;;;;;;;19.40;47.70;;;;;;5025150;28;19921;-64
2022/03/22 14:41:26;;;;;;;;;;;19.40;47.70;;;;;;5025843;28;19975;-64
2022/03/22 14:43:53;;;;;;;;;;;19.40;47.70;;;;;;5026465;28;20042;-65
2022/03/22 14:46:19;;;;;;;;;;;19.40;47.70;;;;;;5026713;28;19917;-64
2022/03/22 14:48:49;;;;;;;;;;;19.40;47.70;;;;;;5025073;28;19917;-64